createdAt,value
2022-10-09T00:04:05.574Z,17.8
2022-10-09T00:09:42.267Z,17.8
2022-10-09T00:15:20.370Z,17.8
2022-10-09T00:20:57.182Z,17.8
2022-10-09T00:26:34.426Z,17.8
2022-10-09T00:32:00.224Z,17.8
2022-10-09T00:37:37.689Z,17.8
2022-10-09T00:42:58.069Z,17.8
2022-10-09T00:48:36.711Z,17.8
2022-10-09T00:54:15.099Z,17.8
2022-10-09T00:59:52.004Z,17.8
2022-10-09T01:05:30.176Z,17.8
2022-10-09T01:11:07.247Z,17.8
2022-10-09T01:16:44.362Z,17.8
2022-10-09T01:22:22.322Z,17.7
2022-10-09T01:27:43.629Z,17.7
2022-10-09T01:33:20.307Z,17.7
2022-10-09T01:38:42.599Z,17.7
2022-10-09T01:44:19.893Z,17.7
2022-10-09T01:49:41.511Z,17.7
2022-10-09T01:55:04.476Z,17.7
2022-10-09T02:00:41.645Z,17.7
2022-10-09T02:06:03.006Z,17.7
2022-10-09T02:11:40.302Z,17.7
2022-10-09T02:17:03.942Z,17.7
2022-10-09T02:22:44.624Z,17.6
2022-10-09T02:28:22.686Z,17.6
2022-10-09T02:34:05.288Z,17.6
2022-10-09T02:39:40.599Z,17.6
2022-10-09T02:45:18.077Z,17.6
2022-10-09T02:50:54.680Z,17.6
2022-10-09T02:56:15.615Z,17.6
2022-10-09T03:01:57.729Z,17.6
2022-10-09T03:07:20.147Z,17.6
2022-10-09T03:12:40.817Z,17.6
2022-10-09T03:17:47.784Z,17.6
2022-10-09T03:23:09.685Z,17.6
2022-10-09T03:28:30.458Z,17.6
2022-10-09T03:34:06.680Z,17.6
2022-10-09T03:39:28.590Z,17.6
2022-10-09T03:44:18.458Z,17.6
2022-10-09T03:49:25.415Z,17.6
2022-10-09T03:54:47.129Z,17.6
2022-10-09T03:59:53.122Z,17.6
2022-10-09T04:05:15.970Z,17.6
2022-10-09T04:10:37.448Z,17.6
2022-10-09T04:15:58.168Z,17.6
2022-10-09T04:21:20.458Z,17.6
2022-10-09T04:26:27.082Z,17.5
2022-10-09T04:31:49.188Z,17.6
2022-10-09T04:36:55.740Z,17.5
2022-10-09T04:42:17.368Z,17.5
2022-10-09T04:47:42.199Z,17.5
2022-10-09T04:53:04.464Z,17.5
2022-10-09T04:58:30.439Z,17.5
2022-10-09T05:04:09.184Z,17.5
2022-10-09T05:09:46.961Z,17.5
2022-10-09T05:15:23.624Z,17.5
2022-10-09T05:21:32.698Z,17.5
2022-10-09T05:26:58.166Z,17.4
2022-10-09T05:32:40.018Z,17.5
2022-10-09T05:38:17.538Z,17.4
2022-10-09T05:43:56.043Z,17.4
2022-10-09T05:49:33.643Z,17.4
2022-10-09T05:55:10.932Z,17.4
2022-10-09T06:00:52.326Z,17.4
2022-10-09T06:06:30.596Z,17.4
2022-10-09T06:12:12.964Z,17.4
2022-10-09T06:17:51.569Z,17.4
2022-10-09T06:23:32.615Z,17.4
2022-10-09T06:29:15.265Z,17.4
2022-10-09T06:34:53.856Z,17.4
2022-10-09T06:40:36.673Z,17.4
2022-10-09T06:46:14.210Z,17.4
2022-10-09T06:51:52.276Z,17.4
2022-10-09T06:57:29.956Z,17.4
2022-10-09T07:03:08.534Z,17.4
2022-10-09T07:08:46.380Z,17.4
2022-10-09T07:14:24.037Z,17.4
2022-10-09T07:20:02.015Z,17.4
2022-10-09T07:25:43.436Z,17.4
2022-10-09T07:31:21.992Z,17.3
2022-10-09T07:36:59.756Z,17.4
2022-10-09T07:42:37.427Z,17.4
2022-10-09T07:48:15.643Z,17.3
2022-10-09T07:53:52.783Z,17.4
2022-10-09T07:59:15.490Z,17.4
2022-10-09T08:04:56.863Z,17.4
2022-10-09T08:10:38.191Z,17.4
2022-10-09T08:16:17.268Z,17.4
2022-10-09T08:21:54.773Z,17.4
2022-10-09T08:27:31.790Z,17.4
2022-10-09T08:33:14.370Z,17.4
2022-10-09T08:39:19.042Z,17.4
2022-10-09T08:44:40.470Z,17.4
2022-10-09T08:50:02.988Z,17.4
2022-10-09T08:55:25.033Z,17.4
2022-10-09T09:01:02.199Z,17.4
2022-10-09T09:06:41.444Z,17.4
2022-10-09T09:12:04.180Z,17.4
2022-10-09T09:17:41.022Z,17.4
2022-10-09T09:23:04.215Z,17.4
2022-10-09T09:28:29.097Z,17.4
2022-10-09T09:33:54.555Z,17.4
2022-10-09T09:40:35.946Z,17.4
2022-10-09T09:45:58.466Z,17.5
2022-10-09T09:52:01.290Z,17.5
2022-10-09T09:57:48.181Z,17.5
2022-10-09T10:02:40.934Z,17.5
2022-10-09T10:08:04.035Z,17.5
2022-10-09T10:13:30.163Z,17.6
2022-10-09T10:18:57.824Z,17.5
2022-10-09T10:24:19.865Z,17.6
2022-10-09T10:29:46.118Z,17.6
2022-10-09T10:35:08.028Z,17.6
2022-10-09T10:40:45.769Z,17.6
2022-10-09T10:46:07.982Z,17.6
2022-10-09T10:51:32.258Z,17.6
2022-10-09T10:57:12.048Z,17.6
2022-10-09T11:02:38.127Z,17.6
2022-10-09T11:08:03.503Z,17.6
2022-10-09T11:13:44.836Z,17.6
2022-10-09T11:19:09.990Z,17.6
2022-10-09T11:24:19.755Z,17.6
2022-10-09T11:29:42.102Z,17.6
2022-10-09T11:35:20.290Z,17.7
2022-10-09T11:40:42.956Z,17.7
2022-10-09T11:45:57.186Z,17.7
2022-10-09T11:51:21.589Z,17.7
2022-10-09T11:56:43.484Z,17.7
2022-10-09T12:02:05.093Z,17.8
2022-10-09T12:07:43.456Z,17.8
2022-10-09T12:13:08.980Z,17.8
2022-10-09T12:18:47.101Z,17.8
2022-10-09T12:24:52.654Z,17.8
2022-10-09T12:30:14.370Z,17.8
2022-10-09T12:35:52.781Z,17.8
2022-10-09T12:41:35.887Z,17.8
2022-10-09T12:47:14.367Z,17.8
2022-10-09T12:52:52.093Z,17.8
2022-10-09T12:58:32.029Z,17.8
2022-10-09T13:04:11.120Z,17.8
2022-10-09T13:09:48.210Z,17.8
2022-10-09T13:15:25.612Z,17.9
2022-10-09T13:21:03.999Z,17.9
2022-10-09T13:26:45.239Z,17.9
2022-10-09T13:32:23.644Z,17.9
2022-10-09T13:38:01.019Z,17.9
2022-10-09T13:43:39.910Z,17.9
2022-10-09T13:49:21.442Z,17.9
2022-10-09T13:55:00.019Z,17.9
2022-10-09T14:00:38.868Z,17.9
2022-10-09T14:06:17.114Z,17.9
2022-10-09T14:11:55.285Z,17.9
2022-10-09T14:17:32.099Z,17.9
2022-10-09T14:23:13.102Z,17.9
2022-10-09T14:28:51.342Z,17.9
2022-10-09T14:34:28.950Z,17.9
2022-10-09T14:40:29.031Z,18
2022-10-09T14:46:07.346Z,18
2022-10-09T14:51:28.631Z,18
2022-10-09T14:57:05.752Z,18
2022-10-09T15:02:43.645Z,18
2022-10-09T15:08:21.968Z,18
2022-10-09T15:13:59.685Z,18.1
2022-10-09T15:19:41.871Z,18.1
2022-10-09T15:25:19.658Z,18.1
2022-10-09T15:30:58.785Z,18.1
2022-10-09T15:36:38.238Z,18.1
2022-10-09T15:42:19.504Z,18.1
2022-10-09T15:48:24.042Z,18.1
2022-10-09T15:53:47.027Z,18.1
2022-10-09T15:59:27.276Z,18.1
2022-10-09T16:05:06.169Z,18.1
2022-10-09T16:10:47.819Z,18.1
2022-10-09T16:16:30.345Z,18.1
2022-10-09T16:21:55.854Z,18.1
2022-10-09T16:27:35.537Z,18.1
2022-10-09T16:32:57.063Z,18.1
2022-10-09T16:38:19.572Z,18.1
2022-10-09T16:44:27.835Z,18.1
2022-10-09T16:49:55.276Z,18.1
2022-10-09T16:55:17.413Z,18.1
2022-10-09T17:00:40.339Z,18.1
2022-10-09T17:06:17.966Z,18.1
2022-10-09T17:12:00.703Z,18.1
2022-10-09T17:17:25.294Z,18.1
2022-10-09T17:23:03.014Z,18.1
2022-10-09T17:28:25.682Z,18.1
2022-10-09T17:34:10.001Z,18.1
2022-10-09T17:39:51.980Z,18.2
2022-10-09T17:45:14.794Z,18.2
2022-10-09T17:50:26.215Z,18.2
2022-10-09T17:55:52.610Z,18.2
2022-10-09T18:01:15.262Z,18.2
2022-10-09T18:06:53.388Z,18.2
2022-10-09T18:11:59.919Z,18.2
2022-10-09T18:17:27.125Z,18.2
2022-10-09T18:22:49.619Z,18.1
2022-10-09T18:33:54.926Z,18.2
2022-10-09T18:39:34.902Z,18.2
2022-10-09T18:45:12.251Z,18.2
2022-10-09T18:50:50.649Z,18.2
2022-10-09T18:56:31.761Z,18.2
2022-10-09T19:02:13.897Z,18.2
2022-10-09T19:07:55.466Z,18.2
2022-10-09T19:13:34.175Z,18.2
2022-10-09T19:19:12.105Z,18.2
2022-10-09T19:24:54.165Z,18.2
2022-10-09T19:30:31.853Z,18.2
2022-10-09T19:36:11.893Z,18.2
2022-10-09T19:41:54.632Z,18.2
2022-10-09T19:47:16.736Z,18.2
2022-10-09T19:52:58.101Z,18.2
2022-10-09T19:58:19.552Z,18.2
2022-10-09T20:03:57.204Z,18.2
2022-10-09T20:09:22.842Z,18.2
2022-10-09T20:15:03.407Z,18.2
2022-10-09T20:20:25.839Z,18.2
2022-10-09T20:25:47.351Z,18.2
2022-10-09T20:31:30.341Z,18.2
2022-10-09T20:36:53.982Z,18.2
2022-10-09T20:42:35.566Z,18.2
2022-10-09T20:47:57.932Z,18.2
2022-10-09T20:53:35.581Z,18.2
2022-10-09T20:59:01.917Z,18.2
2022-10-09T21:04:08.934Z,18.2
2022-10-09T21:09:33.337Z,18.2
2022-10-09T21:15:10.837Z,18.2
2022-10-09T21:20:32.979Z,18.2
2022-10-09T21:26:16.339Z,18.2
2022-10-09T21:31:43.804Z,18.2
2022-10-09T21:37:42.885Z,18.2
2022-10-09T21:43:20.713Z,18.2
2022-10-09T21:48:57.691Z,18.2
2022-10-09T21:54:34.808Z,18.2
2022-10-09T21:59:58.979Z,18.2
2022-10-09T22:05:35.999Z,18.2
2022-10-09T22:11:15.053Z,18.2
2022-10-09T22:16:41.636Z,18.2
2022-10-09T22:22:18.319Z,18.2
2022-10-09T22:27:56.749Z,18.2
2022-10-09T22:33:35.050Z,18.2
2022-10-09T22:39:10.958Z,18.2
2022-10-09T22:44:48.479Z,18.2
2022-10-09T22:50:09.889Z,18.2
2022-10-09T22:55:31.099Z,18.2
2022-10-09T23:01:08.215Z,18.2
2022-10-09T23:06:45.833Z,18.2
2022-10-09T23:12:07.626Z,18.2
2022-10-09T23:17:29.854Z,18.2
2022-10-09T23:22:53.102Z,18.2
2022-10-09T23:28:29.977Z,18.2
2022-10-09T23:34:07.707Z,18.1
2022-10-09T23:39:44.627Z,18.2
2022-10-09T23:45:11.471Z,18.2
2022-10-09T23:50:48.561Z,18.2
2022-10-09T23:56:11.089Z,18.1
